Time,TemperatureF,DewpointF,PressureIn,WindDirection,WindDirectionDegrees,WindSpeedMPH,WindSpeedGustMPH,Humidity,HourlyPrecipIn,Conditions,Clouds,dailyrainin,SoftwareType,DateUTC
2013-06-22 02:11:00,78.0,34.0,29.81,West,265,18.0,38.0,20,0.00,,,0.00,,2013-06-22 02:11:00,
2013-06-22 13:21:00,72.0,31.0,29.85,NW,319,16.0,27.0,22,0.00,,,0.00,,2013-06-22 13:21:00,
2013-06-22 15:34:00,77.0,33.0,29.88,WNW,295,11.0,18.0,20,0.00,,,0.00,,2013-06-22 15:34:00,
2013-06-22 15:43:00,78.0,32.0,29.88,WNW,292,11.0,18.0,19,0.00,,,0.00,,2013-06-22 15:43:00,
2013-06-22 16:02:00,79.0,32.0,29.88,NW,319,8.0,16.0,18,0.00,,,0.00,,2013-06-22 16:02:00,
2013-06-22 16:12:00,80.0,31.0,29.88,WNW,302,9.0,17.0,17,0.00,,,0.00,,2013-06-22 16:12:00,
2013-06-22 16:22:00,80.0,31.0,29.88,NW,307,8.0,14.0,17,0.00,,,0.00,,2013-06-22 16:22:00,
2013-06-22 16:34:00,81.0,32.0,29.88,West,273,6.0,14.0,17,0.00,,,0.00,,2013-06-22 16:34:00,
2013-06-22 16:52:00,81.0,31.0,29.88,WNW,302,8.0,17.0,16,0.00,,,0.00,,2013-06-22 16:52:00,
2013-06-22 17:01:00,82.0,33.0,29.88,WSW,257,8.0,20.0,17,0.00,,,0.00,,2013-06-22 17:01:00,
2013-06-22 17:11:00,83.0,32.0,29.88,West,267,8.0,14.0,16,0.00,,,0.00,,2013-06-22 17:11:00,
2013-06-22 17:43:00,85.0,30.0,29.88,ESE,119,4.0,9.0,14,0.00,,,0.00,,2013-06-22 17:43:00,
2013-06-22 17:52:00,86.0,29.0,29.88,East,97,5.0,10.0,13,0.00,,,0.00,,2013-06-22 17:52:00,
2013-06-22 18:01:00,85.0,29.0,29.88,NNW,331,2.0,10.0,13,0.00,,,0.00,,2013-06-22 18:01:00,
2013-06-22 18:11:00,86.0,29.0,29.88,SE,143,5.0,8.0,13,0.00,,,0.00,,2013-06-22 18:11:00,
2013-06-22 18:22:00,86.0,29.0,29.88,East,82,5.0,7.0,13,0.00,,,0.00,,2013-06-22 18:22:00,
2013-06-22 18:33:00,86.0,29.0,29.88,ENE,78,2.0,9.0,13,0.00,,,0.00,,2013-06-22 18:33:00,
2013-06-22 18:43:00,87.0,28.0,29.87,NNE,29,4.0,6.0,12,0.00,,,0.00,,2013-06-22 18:43:00,
2013-06-22 18:52:00,87.0,28.0,29.87,NW,326,1.0,6.0,12,0.00,,,0.00,,2013-06-22 18:52:00,
2013-06-22 19:01:00,87.0,28.0,29.87,SSW,197,5.0,8.0,12,0.00,,,0.00,,2013-06-22 19:01:00,
2013-06-22 19:11:00,87.0,28.0,29.87,South,181,5.0,10.0,12,0.00,,,0.00,,2013-06-22 19:11:00,
2013-06-22 19:42:00,88.0,29.0,29.86,SSE,165,8.0,16.0,12,0.00,,,0.00,,2013-06-22 19:42:00,
2013-06-22 19:52:00,88.0,29.0,29.85,ESE,113,3.0,16.0,12,0.00,,,0.00,,2013-06-22 19:52:00,
2013-06-22 20:33:00,89.0,30.0,29.83,WSW,237,4.0,15.0,12,0.00,,,0.00,,2013-06-22 20:33:00,
2013-06-22 20:42:00,90.0,31.0,29.83,WSW,251,3.0,14.0,12,0.00,,,0.00,,2013-06-22 20:42:00,
2013-06-22 20:53:00,89.0,32.0,29.83,WNW,295,10.0,18.0,13,0.00,,,0.00,,2013-06-22 20:53:00,
2013-06-22 21:01:00,89.0,32.0,29.83,West,260,7.0,20.0,13,0.00,,,0.00,,2013-06-22 21:01:00,
2013-06-22 21:11:00,90.0,33.0,29.82,West,272,7.0,19.0,13,0.00,,,0.00,,2013-06-22 21:11:00,
2013-06-22 21:33:00,89.0,32.0,29.81,WNW,290,5.0,17.0,13,0.00,,,0.00,,2013-06-22 21:33:00,
2013-06-22 21:43:00,90.0,33.0,29.81,WNW,285,12.0,19.0,13,0.00,,,0.00,,2013-06-22 21:43:00,
2013-06-22 21:53:00,88.0,33.0,29.81,WNW,282,14.0,27.0,14,0.00,,,0.00,,2013-06-22 21:53:00,
2013-06-22 22:01:00,89.0,34.0,29.81,West,280,12.0,22.0,14,0.00,,,0.00,,2013-06-22 22:01:00,
2013-06-22 22:11:00,89.0,34.0,29.81,WNW,283,17.0,23.0,14,0.00,,,0.00,,2013-06-22 22:11:00,
2013-06-22 22:52:00,89.0,35.0,29.79,WNW,289,17.0,27.0,15,0.00,,,0.00,,2013-06-22 22:52:00,
2013-06-22 23:01:00,88.0,36.0,29.79,WNW,291,21.0,29.0,16,0.00,,,0.00,,2013-06-22 23:01:00,
2013-06-22 23:11:00,88.0,36.0,29.79,WNW,293,21.0,30.0,16,0.00,,,0.00,,2013-06-22 23:11:00,
2013-06-22 23:52:00,87.0,37.0,29.80,WNW,291,22.0,34.0,17,0.00,,,0.00,,2013-06-22 23:52:00,